Time;durP1;ratioP1;P1;durP2;ratioP2;P2;SDS_P1;SDS_P2;PMS_P1;PMS_P2;Temp;Humidity;BMP_temperature;BMP_pressure;BME280_temperature;BME280_humidity;BME280_pressure;Samples;Min_cycle;Max_cycle;Signal;HPM_P1;HPM_P2
2021/09/19 00:00:33;;;;;;;5.15;3.15;;;17.10;90.60;;;;;;4814708;29;20065;-87
2021/09/19 00:14:07;;;;;;;4.55;3.10;;;17.00;90.80;;;;;;4761803;30;20513;-87
2021/09/19 00:16:33;;;;;;;4.75;2.90;;;17.00;90.80;;;;;;4786135;29;20408;-86
2021/09/19 00:19:17;;;;;;;4.22;2.70;;;17.00;91.00;;;;;;4819993;29;20050;-87
2021/09/19 00:21:55;;;;;;;5.60;2.60;;;17.00;90.80;;;;;;4809442;29;20507;-87
2021/09/19 00:24:29;;;;;;;4.20;2.90;;;17.00;90.90;;;;;;4837648;29;20144;-86
2021/09/19 00:27:03;;;;;;;5.43;2.90;;;17.00;91.00;;;;;;4855975;29;20077;-87
2021/09/19 00:29:29;;;;;;;;;;;16.90;91.10;;;;;;4874428;29;20120;-85
2021/09/19 00:32:06;;;;;;;4.80;2.70;;;16.90;90.50;;;;;;4863689;29;20354;-87
2021/09/19 00:34:32;;;;;;;3.83;2.58;;;16.90;91.10;;;;;;4875353;29;20113;-86
2021/09/19 00:37:07;;;;;;;4.28;2.53;;;16.90;91.20;;;;;;4880818;29;20037;-87
2021/09/19 00:39:41;;;;;;;4.25;2.70;;;16.90;91.20;;;;;;4860179;29;20049;-87
2021/09/19 00:42:19;;;;;;;4.10;2.25;;;16.90;91.20;;;;;;4847252;29;20038;-86
2021/09/19 00:45:04;;;;;;;3.70;2.10;;;16.90;91.20;;;;;;4874837;29;20060;-86
2021/09/19 00:47:48;;;;;;;4.40;2.35;;;16.90;91.10;;;;;;4864841;29;20044;-87
2021/09/19 00:50:39;;;;;;;4.68;2.08;;;16.90;91.20;;;;;;4862467;29;20033;-86
2021/09/19 00:56:33;;;;;;;5.20;2.20;;;16.90;91.20;;;;;;4880669;29;20504;-87
2021/09/19 00:59:09;;;;;;;3.00;1.83;;;16.90;91.10;;;;;;4878811;29;20037;-86
2021/09/19 01:01:35;;;;;;;3.15;2.00;;;16.90;91.00;;;;;;4880429;29;20052;-86
2021/09/19 01:04:01;;;;;;;2.67;1.80;;;16.90;91.20;;;;;;4871687;29;20046;-86
2021/09/19 01:06:34;;;;;;;3.03;1.77;;;16.90;91.20;;;;;;4846295;29;20128;-86
2021/09/19 01:09:15;;;;;;;3.72;1.73;;;16.90;91.20;;;;;;4862913;29;20065;-87
2021/09/19 01:11:41;;;;;;;2.63;1.60;;;16.90;91.10;;;;;;4846099;29;20048;-87
2021/09/19 01:14:07;;;;;;;3.97;2.22;;;16.80;91.30;;;;;;4875455;29;20037;-86
2021/09/19 01:16:39;;;;;;;3.88;1.90;;;16.80;91.20;;;;;;4850810;29;20049;-86
2021/09/19 01:19:38;;;;;;;5.38;1.80;;;16.80;91.20;;;;;;4866584;29;20041;-87
2021/09/19 01:22:19;;;;;;;2.88;1.50;;;16.80;91.20;;;;;;4864583;29;20120;-87
2021/09/19 01:47:29;;;;;;;3.33;1.60;;;16.60;90.90;;;;;;4821469;29;20476;-87
2021/09/19 01:50:08;;;;;;;4.05;1.80;;;16.70;91.20;;;;;;4829494;29;20411;-87
2021/09/19 01:52:46;;;;;;;3.38;1.40;;;16.60;91.10;;;;;;4814744;29;20461;-86
2021/09/19 01:55:15;;;;;;;2.58;1.25;;;16.70;91.20;;;;;;4814318;29;20450;-87
2021/09/19 02:00:39;;;;;;;3.65;1.42;;;16.70;91.50;;;;;;4779097;29;20148;-87
2021/09/19 02:03:22;;;;;;;3.70;1.40;;;16.60;91.40;;;;;;4785206;29;20068;-87
2021/09/19 02:37:47;;;;;;;3.25;1.48;;;16.50;91.30;;;;;;4799250;29;20415;-87
2021/09/19 02:40:14;;;;;;;2.70;1.38;;;16.50;91.40;;;;;;4834259;29;20061;-87
2021/09/19 02:57:27;;;;;;;3.55;1.50;;;16.40;91.10;;;;;;4801035;29;20111;-86
2021/09/19 03:00:23;;;;;;;3.35;1.65;;;16.40;91.40;;;;;;4790684;29;20051;-86
2021/09/19 03:05:25;;;;;;;4.28;1.63;;;16.40;91.50;;;;;;4848006;24;1121193;-87
2021/09/19 03:07:54;;;;;;;3.80;2.10;;;16.50;91.40;;;;;;4862379;29;20049;-87
2021/09/19 03:14:09;;;;;;;4.25;1.60;;;16.40;91.20;;;;;;4865091;29;20064;-86
2021/09/19 03:16:50;;;;;;;4.75;1.88;;;16.40;91.40;;;;;;4861601;29;20055;-86
2021/09/19 03:19:16;;;;;;;3.95;2.08;;;16.40;91.30;;;;;;4867627;29;20546;-87
2021/09/19 03:21:51;;;;;;;3.90;1.83;;;16.40;91.50;;;;;;4856236;29;20050;-86
2021/09/19 04:02:42;;;;;;;4.80;2.45;;;16.30;91.50;;;;;;5183564;23;20250;-88
2021/09/19 04:05:16;;;;;;;4.88;2.30;;;16.30;91.40;;;;;;4867294;29;20494;-86
2021/09/19 04:07:44;;;;;;;5.38;2.40;;;16.30;91.70;;;;;;4862024;29;20041;-87
2021/09/19 04:10:22;;;;;;;4.72;2.55;;;16.30;91.80;;;;;;4875810;29;20482;-86
2021/09/19 04:12:48;;;;;;;5.13;2.58;;;16.30;91.70;;;;;;4865850;29;20121;-86
2021/09/19 04:15:23;;;;;;;5.30;2.55;;;16.40;91.60;;;;;;4863574;29;20132;-87
2021/09/19 04:17:51;;;;;;;5.03;2.55;;;16.30;91.50;;;;;;4862814;29;20046;-86
2021/09/19 04:20:49;;;;;;;5.13;2.60;;;16.30;91.50;;;;;;4849894;29;20085;-86
2021/09/19 04:23:25;;;;;;;7.30;3.00;;;16.30;91.30;;;;;;4838384;29;20067;-86
2021/09/19 04:26:06;;;;;;;4.63;2.80;;;16.30;91.60;;;;;;4880626;29;20045;-86
2021/09/19 04:29:10;;;;;;;5.55;2.80;;;16.30;91.70;;;;;;4865327;29;20057;-86
2021/09/19 04:31:38;;;;;;;5.05;2.58;;;16.30;91.30;;;;;;4808143;29;20518;-86
2021/09/19 04:34:04;;;;;;;6.40;3.00;;;16.30;91.60;;;;;;4802443;29;20497;-86
2021/09/19 04:36:29;;;;;;;5.55;2.90;;;16.30;91.70;;;;;;4876871;29;20049;-88
2021/09/19 04:38:55;;;;;;;4.93;2.92;;;16.30;91.60;;;;;;4880172;29;20494;-86
2021/09/19 04:41:20;;;;;;;5.18;2.92;;;16.30;91.60;;;;;;4847721;29;20387;-87
2021/09/19 04:43:46;;;;;;;6.38;2.95;;;16.30;91.50;;;;;;4862450;29;20094;-86
2021/09/19 04:46:14;;;;;;;6.28;3.35;;;16.30;91.90;;;;;;4848013;29;20520;-87
2021/09/19 04:52:35;;;;;;;5.95;3.03;;;16.20;91.30;;;;;;4863052;29;20140;-86
2021/09/19 04:55:14;;;;;;;6.47;2.88;;;16.20;91.50;;;;;;4846229;29;20117;-87
2021/09/19 04:57:52;;;;;;;6.60;3.30;;;16.20;91.30;;;;;;4856940;29;20049;-87
2021/09/19 05:00:24;;;;;;;6.18;3.30;;;16.10;91.40;;;;;;4869559;29;20045;-87
2021/09/19 05:02:55;;;;;;;6.82;3.20;;;16.10;91.60;;;;;;4850796;29;20045;-87
2021/09/19 05:05:21;;;;;;;6.10;3.00;;;16.10;91.60;;;;;;4846952;29;20054;-87
2021/09/19 05:07:53;;;;;;;5.70;3.22;;;16.10;91.50;;;;;;4847369;29;20052;-88
2021/09/19 05:10:47;;;;;;;7.25;3.03;;;16.10;91.90;;;;;;4847524;29;20136;-88
2021/09/19 05:13:24;;;;;;;;;;;16.10;91.30;;;;;;4868065;29;20064;-86
2021/09/19 05:16:08;;;;;;;6.90;3.10;;;16.00;91.00;;;;;;4846163;29;19924;-86
2021/09/19 05:18:34;;;;;;;7.43;3.15;;;16.00;91.30;;;;;;4870339;29;20077;-87
2021/09/19 05:21:00;;;;;;;5.05;3.13;;;16.10;91.50;;;;;;4854793;29;20093;-87
2021/09/19 05:24:10;;;;;;;6.07;3.22;;;16.10;91.40;;;;;;4849522;29;20045;-88
2021/09/19 05:26:57;;;;;;;8.60;3.33;;;16.10;91.10;;;;;;4876863;29;20053;-89
2021/09/19 05:45:30;;;;;;;5.20;2.97;;;15.90;91.10;;;;;;4850728;29;20049;-88
2021/09/19 05:48:30;;;;;;;7.63;3.65;;;15.90;91.10;;;;;;4862642;29;20097;-89
2021/09/19 05:50:58;;;;;;;6.78;3.70;;;15.90;91.10;;;;;;4849138;29;20045;-86
2021/09/19 05:53:24;;;;;;;6.60;3.53;;;15.90;91.30;;;;;;4878869;29;20059;-88
2021/09/19 06:06:21;;;;;;;;;;;15.80;91.00;;;;;;4785307;29;20078;-82
2021/09/19 06:16:11;;;;;;;7.72;3.60;;;15.70;91.20;;;;;;4860870;29;20044;-83
2021/09/19 06:18:37;;;;;;;7.50;3.90;;;15.70;91.50;;;;;;4843324;29;20046;-83
2021/09/19 06:21:03;;;;;;;6.55;3.65;;;15.70;91.40;;;;;;4843503;29;20570;-83
2021/09/19 06:23:31;;;;;;;7.72;3.80;;;15.70;91.40;;;;;;4855558;29;20048;-84
2021/09/19 06:26:09;;;;;;;7.70;3.63;;;15.70;91.30;;;;;;4861210;29;20511;-83
2021/09/19 06:28:38;;;;;;;9.68;4.50;;;15.70;91.40;;;;;;4859625;29;20045;-87
2021/09/19 06:31:03;;;;;;;7.13;4.07;;;15.70;91.40;;;;;;4859602;29;20136;-86
2021/09/19 06:33:29;;;;;;;7.65;4.32;;;15.70;91.40;;;;;;4858809;29;20136;-84
2021/09/19 06:35:55;;;;;;;9.15;4.18;;;15.70;91.30;;;;;;4843705;29;20060;-83
2021/09/19 06:38:20;;;;;;;8.20;3.80;;;15.70;91.30;;;;;;4858231;29;20056;-83
2021/09/19 06:40:46;;;;;;;6.85;4.18;;;15.70;91.30;;;;;;4832291;29;20418;-83
2021/09/19 06:54:24;;;;;;;7.70;4.57;;;15.60;91.20;;;;;;4822202;29;20079;-84
2021/09/19 07:01:07;;;;;;;8.45;4.70;;;15.60;91.00;;;;;;4822612;29;20090;-86
2021/09/19 07:03:34;;;;;;;12.60;4.78;;;15.60;91.20;;;;;;4806418;29;20054;-85
2021/09/19 07:06:00;;;;;;;8.15;4.60;;;15.60;91.20;;;;;;4807702;29;20054;-86
2021/09/19 07:08:27;;;;;;;8.73;5.30;;;15.60;91.30;;;;;;4806717;29;20403;-86
2021/09/19 07:10:53;;;;;;;7.82;4.97;;;15.60;91.20;;;;;;4807355;29;20522;-85
2021/09/19 07:13:21;;;;;;;7.60;4.63;;;15.60;91.30;;;;;;4807600;29;20124;-86
2021/09/19 07:15:49;;;;;;;10.85;4.78;;;15.70;91.30;;;;;;4806992;29;20411;-86
2021/09/19 07:18:15;;;;;;;8.88;5.15;;;15.70;91.30;;;;;;4833712;29;20112;-86
2021/09/19 07:20:40;;;;;;;6.80;4.70;;;15.70;91.20;;;;;;4860024;29;20128;-87
2021/09/19 07:23:07;;;;;;;7.15;4.82;;;15.70;91.30;;;;;;4859461;29;20041;-87
2021/09/19 07:25:32;;;;;;;7.85;4.72;;;15.70;91.30;;;;;;4859563;29;20061;-86
2021/09/19 07:27:58;;;;;;;9.30;4.97;;;15.70;91.30;;;;;;4858977;29;20059;-86
2021/09/19 07:30:24;;;;;;;8.73;5.20;;;15.70;91.30;;;;;;4843222;29;20140;-86
2021/09/19 07:37:30;;;;;;;7.28;5.05;;;15.70;91.10;;;;;;4878479;29;20054;-86
2021/09/19 07:48:17;;;;;;;7.63;4.88;;;15.70;91.20;;;;;;4754375;30;20448;-87
2021/09/19 07:50:43;;;;;;;9.90;5.77;;;15.70;91.20;;;;;;4737524;30;20548;-86
2021/09/19 07:53:12;;;;;;;9.20;5.15;;;15.70;91.40;;;;;;4739176;30;20102;-86
2021/09/19 07:55:38;;;;;;;8.55;5.03;;;15.70;91.30;;;;;;4799429;29;20123;-87
2021/09/19 07:58:03;;;;;;;8.98;5.60;;;15.70;91.30;;;;;;4821833;29;20049;-88
2021/09/19 08:00:30;;;;;;;9.20;5.32;;;15.80;91.30;;;;;;4882799;29;20053;-89
2021/09/19 08:02:55;;;;;;;7.45;5.15;;;15.80;91.30;;;;;;4882499;29;20066;-87
2021/09/19 08:05:24;;;;;;;10.15;5.88;;;15.80;91.30;;;;;;4880724;29;20037;-87
2021/09/19 08:07:50;;;;;;;8.85;4.95;;;15.80;91.30;;;;;;4866634;29;20497;-88
2021/09/19 08:10:19;;;;;;;7.65;5.00;;;15.90;91.40;;;;;;4881347;29;20576;-87
2021/09/19 08:12:48;;;;;;;7.60;5.22;;;15.90;91.30;;;;;;4880794;29;20053;-86
2021/09/19 08:15:16;;;;;;;7.50;4.85;;;15.90;91.30;;;;;;4865692;29;20041;-87
2021/09/19 08:17:46;;;;;;;8.43;5.43;;;15.90;91.20;;;;;;4881191;29;20049;-87
2021/09/19 08:20:14;;;;;;;7.63;4.97;;;16.00;91.10;;;;;;4880391;29;20100;-87
2021/09/19 08:22:40;;;;;;;8.35;5.47;;;16.00;91.50;;;;;;4880626;29;20504;-88
2021/09/19 08:25:10;;;;;;;8.18;5.60;;;16.00;91.20;;;;;;4865621;29;20057;-86
2021/09/19 08:43:26;;;;;;;7.25;5.13;;;16.10;91.00;;;;;;4753688;30;20056;-85
2021/09/19 08:46:07;;;;;;;7.88;5.43;;;16.20;91.10;;;;;;4787103;29;20110;-84
2021/09/19 08:48:34;;;;;;;8.82;5.05;;;16.20;91.00;;;;;;4790406;29;20058;-85
2021/09/19 08:51:00;;;;;;;9.27;5.18;;;16.30;91.20;;;;;;4828069;29;20054;-85
2021/09/19 08:53:28;;;;;;;6.95;5.18;;;16.30;91.30;;;;;;4846069;29;20069;-84
2021/09/19 08:55:54;;;;;;;7.93;5.30;;;16.30;90.90;;;;;;4845949;29;20137;-86
2021/09/19 08:58:19;;;;;;;9.27;4.85;;;16.30;90.90;;;;;;4879776;29;20123;-87
2021/09/19 09:00:49;;;;;;;8.35;5.05;;;16.40;90.90;;;;;;4880724;29;20045;-88
2021/09/19 09:03:23;;;;;;;7.55;5.47;;;16.40;90.90;;;;;;4866994;29;20057;-88
2021/09/19 09:06:02;;;;;;;8.90;5.20;;;16.40;90.80;;;;;;4846456;29;20525;-87
2021/09/19 09:53:05;;;;;;;;;;;;;;;;;;;;;
2021/09/19 10:28:10;;;;;;;6.97;4.72;;;17.90;89.30;;;;;;4856848;29;20065;-89
2021/09/19 10:46:58;;;;;;;6.90;4.32;;;18.40;89.80;;;;;;4877943;24;20068;-88
2021/09/19 10:50:26;;;;;;;;;;;;;;;;;;;;;
2021/09/19 10:56:21;;;;;;;7.82;4.05;;;18.70;87.60;;;;;;4867673;24;20062;-91
2021/09/19 11:00:03;;;;;;;6.75;4.18;;;18.80;87.60;;;;;;4862185;29;20120;-92
2021/09/19 11:26:44;;;;;;;7.28;3.60;;;19.70;88.10;;;;;;5104343;24;20085;-90
2021/09/19 11:29:34;;;;;;;6.38;3.85;;;19.80;87.00;;;;;;4761349;30;20059;-88
2021/09/19 11:32:03;;;;;;;5.63;3.90;;;19.90;87.70;;;;;;4804150;29;20050;-88
2021/09/19 11:34:28;;;;;;;7.22;3.90;;;20.00;88.00;;;;;;4839440;24;20061;-89
2021/09/19 11:49:26;;;;;;;7.25;3.65;;;20.20;87.30;;;;;;5371617;23;20092;-87
2021/09/19 11:52:33;;;;;;;5.57;3.50;;;20.30;86.60;;;;;;4847754;24;21385;-89
2021/09/19 11:59:46;;;;;;;8.13;3.33;;;20.40;87.10;;;;;;5493576;23;20075;-89
2021/09/19 12:03:17;;;;;;;7.95;3.55;;;20.40;79.90;;;;;;4850402;29;20422;-89
2021/09/19 12:06:12;;;;;;;5.93;3.50;;;20.30;83.10;;;;;;4866114;29;20057;-88
2021/09/19 12:09:18;;;;;;;6.70;3.58;;;20.40;85.10;;;;;;4881951;29;20069;-88
2021/09/19 12:11:54;;;;;;;5.43;3.55;;;20.50;85.00;;;;;;5014713;23;20043;-88
2021/09/19 12:14:28;;;;;;;5.13;3.05;;;20.50;85.40;;;;;;4866741;29;20052;-88
2021/09/19 12:17:04;;;;;;;6.15;3.08;;;20.60;84.90;;;;;;4866483;29;20128;-88
2021/09/19 12:19:35;;;;;;;5.15;2.80;;;20.60;83.80;;;;;;4865010;29;20431;-89
2021/09/19 12:22:05;;;;;;;5.43;3.30;;;20.70;79.90;;;;;;5079310;23;20045;-88
2021/09/19 12:24:33;;;;;;;5.40;3.13;;;20.70;82.60;;;;;;4865112;29;20139;-88
2021/09/19 12:27:32;;;;;;;5.72;3.10;;;20.70;83.90;;;;;;4865017;29;20078;-88
2021/09/19 12:30:07;;;;;;;5.15;3.30;;;20.80;84.30;;;;;;4854972;29;20061;-88
2021/09/19 12:32:42;;;;;;;6.32;3.30;;;20.80;85.30;;;;;;4864829;29;20049;-89
2021/09/19 12:35:11;;;;;;;4.97;3.00;;;20.90;85.40;;;;;;4881957;29;20057;-88
2021/09/19 12:37:44;;;;;;;5.03;2.90;;;21.00;85.70;;;;;;4866154;29;20053;-88
2021/09/19 12:40:16;;;;;;;5.27;3.20;;;21.10;85.10;;;;;;4880741;29;20045;-88
2021/09/19 12:42:42;;;;;;;4.43;3.00;;;21.10;85.40;;;;;;4864798;29;20185;-88
2021/09/19 12:45:10;;;;;;;6.15;3.65;;;21.20;85.60;;;;;;4880507;29;20094;-89
2021/09/19 13:54:20;;;;;;;4.72;3.00;;;21.40;83.50;;;;;;4878717;29;20076;-88
2021/09/19 14:11:46;;;;;;;4.47;2.70;;;21.40;82.50;;;;;;4861372;29;20112;-90
2021/09/19 14:14:30;;;;;;;6.55;2.92;;;21.40;82.30;;;;;;4875118;29;20051;-89
2021/09/19 14:17:09;;;;;;;7.15;2.85;;;21.40;81.90;;;;;;4863622;29;20044;-90
2021/09/19 14:19:50;;;;;;;5.28;2.92;;;21.50;82.10;;;;;;4878623;29;20059;-91
2021/09/19 14:22:15;;;;;;;7.05;2.60;;;21.40;82.70;;;;;;4878174;29;20837;-89
2021/09/19 14:25:20;;;;;;;6.00;2.88;;;21.50;82.40;;;;;;4880100;23;20060;-89
2021/09/19 14:27:56;;;;;;;4.70;2.83;;;21.50;82.90;;;;;;4882466;29;20297;-89
2021/09/19 14:30:28;;;;;;;7.40;2.88;;;21.50;82.30;;;;;;4875507;29;20510;-90
2021/09/19 14:32:56;;;;;;;6.28;3.15;;;21.50;81.90;;;;;;4858656;29;20054;-89
2021/09/19 14:35:32;;;;;;;7.22;2.97;;;21.50;79.60;;;;;;4863455;29;20045;-89
2021/09/19 14:38:06;;;;;;;5.35;3.22;;;21.50;80.10;;;;;;4879140;29;20097;-90
2021/09/19 14:43:14;;;;;;;6.63;3.00;;;21.50;81.20;;;;;;4878311;23;20549;-90
2021/09/19 14:49:33;;;;;;;4.90;2.50;;;21.50;81.40;;;;;;4858713;29;20067;-89
2021/09/19 14:52:08;;;;;;;5.03;2.80;;;21.40;81.50;;;;;;4845148;29;20037;-90
2021/09/19 14:54:34;;;;;;;6.15;2.55;;;21.50;81.90;;;;;;4848871;29;20092;-87
2021/09/19 14:57:03;;;;;;;3.50;2.20;;;21.40;82.50;;;;;;4850343;29;20061;-87
2021/09/19 14:59:41;;;;;;;4.63;2.67;;;21.50;82.70;;;;;;4851457;29;20418;-87
2021/09/19 16:31:18;;;;;;;3.70;2.20;;;20.90;83.70;;;;;;4881474;29;20045;-88
2021/09/19 16:33:57;;;;;;;5.22;2.53;;;20.90;85.00;;;;;;4865693;29;20064;-87
2021/09/19 17:51:27;;;;;;;;;;;19.80;86.20;;;;;;4806098;29;20077;-86
2021/09/19 17:53:59;;;;;;;3.67;2.00;;;19.60;85.80;;;;;;4808461;29;19959;-88
2021/09/19 17:56:41;;;;;;;4.80;1.90;;;19.60;86.80;;;;;;4863868;29;20472;-88
2021/09/19 17:59:12;;;;;;;3.95;2.00;;;19.60;86.40;;;;;;4865130;29;20049;-87
2021/09/19 18:01:41;;;;;;;3.97;1.90;;;19.60;86.70;;;;;;4863944;29;20057;-88
2021/09/19 18:28:12;;;;;;;;;;;;;;;;;;;;;
2021/09/19 18:30:43;;;;;;;4.40;2.40;;;18.80;85.10;;;;;;4796752;29;20061;-84
2021/09/19 18:33:09;;;;;;;3.67;2.03;;;18.80;85.90;;;;;;4859767;29;20053;-85
2021/09/19 18:35:36;;;;;;;4.53;2.15;;;18.80;85.80;;;;;;4859978;29;20049;-84
2021/09/19 18:38:02;;;;;;;4.57;2.38;;;18.70;85.70;;;;;;4860600;29;20363;-84
2021/09/19 18:40:27;;;;;;;4.40;2.53;;;18.70;85.70;;;;;;4862190;29;20061;-85
2021/09/19 18:42:53;;;;;;;4.00;2.35;;;18.70;85.70;;;;;;4860591;29;20114;-84
2021/09/19 18:45:20;;;;;;;3.97;2.42;;;18.70;85.40;;;;;;4844826;29;20050;-84
2021/09/19 18:47:46;;;;;;;4.00;2.30;;;18.60;85.50;;;;;;4842178;29;20088;-85
2021/09/19 18:50:13;;;;;;;3.65;2.20;;;18.60;85.60;;;;;;4843766;29;20045;-85
2021/09/19 18:52:39;;;;;;;4.30;2.20;;;18.50;85.60;;;;;;4844411;29;20189;-84
2021/09/19 18:55:09;;;;;;;5.05;2.40;;;18.50;85.50;;;;;;4859456;29;20049;-84
2021/09/19 18:57:35;;;;;;;4.00;2.20;;;18.50;85.60;;;;;;4841354;29;20132;-84
2021/09/19 19:00:00;;;;;;;4.80;2.40;;;18.40;85.60;;;;;;4842758;29;20443;-84
2021/09/19 19:02:26;;;;;;;4.93;2.28;;;18.40;85.80;;;;;;4843248;29;20042;-83
2021/09/19 19:04:52;;;;;;;4.75;2.38;;;18.30;86.00;;;;;;4857563;29;20120;-85
2021/09/19 19:07:20;;;;;;;5.28;2.42;;;18.30;86.10;;;;;;4841565;29;20038;-85
2021/09/19 19:09:46;;;;;;;5.25;2.78;;;18.20;86.10;;;;;;4839301;29;20049;-84
2021/09/19 19:12:11;;;;;;;4.88;2.58;;;18.20;86.00;;;;;;4857727;29;20049;-84
2021/09/19 19:14:43;;;;;;;5.60;2.60;;;18.10;85.80;;;;;;4826864;29;20044;-85
2021/09/19 19:17:18;;;;;;;4.70;2.50;;;18.00;85.60;;;;;;4844785;29;20130;-85
2021/09/19 19:19:47;;;;;;;4.03;2.20;;;18.00;85.70;;;;;;4855955;29;20054;-85
2021/09/19 19:22:18;;;;;;;4.78;2.45;;;17.90;85.60;;;;;;4855923;29;20042;-86
2021/09/19 19:24:47;;;;;;;5.07;2.30;;;17.90;85.80;;;;;;4859619;29;20167;-86
2021/09/19 19:27:25;;;;;;;4.75;2.53;;;17.80;85.90;;;;;;4843082;29;20090;-86
2021/09/19 20:45:36;;;;;;;6.35;3.15;;;16.20;87.00;;;;;;4861035;29;20080;-83
2021/09/19 21:03:08;;;;;;;5.28;2.83;;;16.00;87.50;;;;;;4858139;29;20521;-84
2021/09/19 21:05:36;;;;;;;4.70;2.90;;;15.90;87.60;;;;;;4863562;29;20053;-84
2021/09/19 21:08:30;;;;;;;6.18;2.92;;;15.90;88.50;;;;;;4845784;29;20053;-84
2021/09/19 21:11:08;;;;;;;5.25;3.10;;;15.80;87.80;;;;;;4867116;29;20398;-84
2021/09/19 21:16:02;;;;;;;5.82;3.00;;;15.80;88.90;;;;;;4860064;29;20053;-83
2021/09/19 21:18:31;;;;;;;6.57;3.40;;;15.80;88.90;;;;;;4860517;29;20061;-83
2021/09/19 21:20:57;;;;;;;5.72;3.10;;;15.80;89.00;;;;;;4844954;29;20045;-83
2021/09/19 21:27:26;;;;;;;5.50;3.20;;;15.80;89.10;;;;;;4858697;29;20097;-84
2021/09/19 22:00:08;;;;;;;5.93;3.25;;;15.60;88.40;;;;;;4802470;29;20188;-84
2021/09/19 22:03:05;;;;;;;5.10;2.90;;;15.50;88.60;;;;;;4786383;29;20066;-85
2021/09/19 22:17:15;;;;;;;5.38;3.20;;;15.40;88.50;;;;;;4843018;29;20080;-84
2021/09/19 22:46:03;;;;;;;5.55;3.22;;;15.40;89.10;;;;;;4780159;29;20054;-84
2021/09/19 22:52:17;;;;;;;6.90;3.50;;;15.30;89.70;;;;;;4779417;29;20552;-84
2021/09/19 22:55:02;;;;;;;6.78;3.22;;;15.30;89.40;;;;;;4822227;29;20610;-84
2021/09/19 22:57:33;;;;;;;5.93;3.60;;;15.30;89.30;;;;;;4844076;29;20093;-84
2021/09/19 23:10:35;;;;;;;5.43;3.30;;;15.20;89.40;;;;;;4860991;29;20426;-84
2021/09/19 23:13:18;;;;;;;5.55;3.35;;;15.20;89.50;;;;;;4842995;29;20075;-83
2021/09/19 23:16:32;;;;;;;5.47;3.22;;;15.20;89.60;;;;;;4861741;29;20157;-84
2021/09/19 23:22:38;;;;;;;5.88;3.70;;;15.20;89.60;;;;;;4854594;29;20157;-84
2021/09/19 23:29:57;;;;;;;6.45;3.40;;;15.20;89.70;;;;;;4793136;29;20054;-84
2021/09/19 23:32:37;;;;;;;6.05;3.50;;;15.10;89.20;;;;;;4792293;29;20050;-84
2021/09/19 23:35:15;;;;;;;5.90;3.30;;;15.10;89.80;;;;;;4791623;29;20075;-85
2021/09/19 23:37:50;;;;;;;5.82;3.38;;;15.10;89.90;;;;;;4792345;29;20187;-84
2021/09/19 23:40:34;;;;;;;6.75;3.67;;;15.10;90.00;;;;;;4791959;29;20144;-84
2021/09/19 23:43:06;;;;;;;6.72;3.63;;;15.20;89.60;;;;;;4792356;29;20090;-84
2021/09/19 23:45:40;;;;;;;5.65;3.50;;;15.20;89.90;;;;;;4792020;29;20062;-85
2021/09/19 23:48:21;;;;;;;5.97;3.25;;;15.20;90.20;;;;;;4790820;29;20054;-84
2021/09/19 23:50:59;;;;;;;6.80;3.67;;;15.20;89.60;;;;;;4792267;29;20051;-84
2021/09/19 23:53:25;;;;;;;6.30;3.63;;;15.20;89.70;;;;;;4791942;29;20059;-84
2021/09/19 23:56:05;;;;;;;6.43;3.58;;;15.20;89.80;;;;;;4791163;29;20055;-84
2021/09/19 23:58:34;;;;;;;7.63;3.70;;;15.10;89.40;;;;;;4803590;29;20523;-84
